Manila Express — VRCX7 — position and weather

sailwx.info

Track history (hours):
 
Tides and Currents Weather Stations Pressure Air Temp Water Temp Dewpoint Dewpoint Depression Visibility Wind Speed Wind Dir Waves Ship Positions

Manila Express

Last reported at 2018-Jan-08 03:04 UTC. Time now 2018-Jan-20 11:09 UTC.
Position N 01°15' E 104°02'.
Warning: this ship's position is 12 days out of date.

Length 260 m; draft 8.4 m.

Type: Cargo ship. MMSI: 477830800.

Date/timePositionNaut miles runAvg speedWind from/ knotsBaromVisibWave heightAir tempDewpointWater temp
2018-Jan-08 03:04N 01°15' E 104°02'115.3
2018-Jan-08 02:59N 01°15' E 104°01'714.3
2018-Jan-08 02:30N 01°13' E 103°55'5 9.8
2018-Jan-08 01:59N 01°12' E 103°50'4 8.1
2018-Jan-08 01:31N 01°15' E 103°47'1 1.7
2018-Jan-08 00:54N 01°16' E 103°47'0 0.0
2018-Jan-08 00:30N 01°16' E 103°47'0 0.0
2018-Jan-07 23:59N 01°16' E 103°47'0 0.0
2018-Jan-07 23:30N 01°16' E 103°47'0 0.0
2018-Jan-07 22:59N 01°16' E 103°47'0 0.0
2018-Jan-07 22:30N 01°16' E 103°47'0 0.0
2018-Jan-07 21:59N 01°16' E 103°47'0 0.0
2018-Jan-07 21:30N 01°16' E 103°47'0 0.0
2018-Jan-07 20:59N 01°16' E 103°47'0 0.0
2018-Jan-07 20:30N 01°16' E 103°47'0 0.0
2018-Jan-07 20:00N 01°16' E 103°47'0 0.0
2018-Jan-07 19:30N 01°16' E 103°47'0 0.0
2018-Jan-07 19:01N 01°16' E 103°47'0 0.0
2018-Jan-07 18:30N 01°16' E 103°47'0 0.0
2018-Jan-07 17:59N 01°16' E 103°47'0 0.0
2018-Jan-07 17:30N 01°16' E 103°47'0 0.0
2018-Jan-07 16:59N 01°16' E 103°47'0 0.0
2018-Jan-07 16:30N 01°16' E 103°47'0 0.0
2018-Jan-07 15:59N 01°16' E 103°47'0 0.0
2018-Jan-07 15:30N 01°16' E 103°47'0 0.0
2018-Jan-07 14:59N 01°16' E 103°47'0 0.0
2018-Jan-07 14:30N 01°16' E 103°47'0 0.0
2018-Jan-07 13:59N 01°16' E 103°47'0 0.0
2018-Jan-07 13:30N 01°16' E 103°47'0 0.0
2018-Jan-07 12:59N 01°16' E 103°47'0 0.0
2018-Jan-07 12:30N 01°16' E 103°47'0 0.0
2018-Jan-07 08:48N 01°16' E 103°47'0 0.0
2018-Jan-07 08:30N 01°16' E 103°47'0 0.0
2018-Jan-07 07:59N 01°16' E 103°47'0 0.0
2018-Jan-07 07:30N 01°16' E 103°47'0 0.0
2018-Jan-07 07:01N 01°16' E 103°47'0 0.0
2018-Jan-07 06:30N 01°16' E 103°47'0 0.0
2018-Jan-07 05:59N 01°16' E 103°47'0 0.0
2018-Jan-07 05:30N 01°16' E 103°47'0 0.0
2018-Jan-07 04:59N 01°16' E 103°47'0 0.0
2018-Jan-07 04:30N 01°16' E 103°47'0 0.0
2018-Jan-07 03:59N 01°16' E 103°47'0 0.0
2018-Jan-07 03:30N 01°16' E 103°47'0 0.0
2018-Jan-07 02:59N 01°16' E 103°47'0 0.0
2018-Jan-07 02:30N 01°16' E 103°47'0 0.0
2018-Jan-07 01:59N 01°16' E 103°47'0 0.0
2018-Jan-07 01:30N 01°16' E 103°47'0 0.0
2018-Jan-07 00:30N 01°16' E 103°47'0 0.0
2018-Jan-06 23:59N 01°16' E 103°47'0 0.2
2018-Jan-06 23:30N 01°16' E 103°48'2 3.3
2018-Jan-06 22:59N 01°15' E 103°46'612.3
2018-Jan-06 22:30N 01°13' E 103°40'5 9.2
2018-Jan-06 22:01N 01°12' E 103°36'3 5.4
2018-Jan-06 21:30N 01°10' E 103°34'4 8.0
2018-Jan-06 20:59N 01°10' E 103°30'510.3
2018-Jan-06 20:30N 01°11' E 103°25'611.1
2018-Jan-06 19:58N 01°15' E 103°21'911.2
2018-Jan-06 19:13N 01°21' E 103°14'312.3
2018-Jan-06 18:58N 01°23' E 103°12'  
Track history (hours):
 
Tides and Currents Weather Stations Pressure Air Temp Water Temp Dewpoint Dewpoint Depression Visibility Wind Speed Wind Dir Waves Ship Positions

Manila Express

Last reported at 2018-Jan-08 03:04 UTC. Time now 2018-Jan-20 11:09 UTC.
Position N 01°15' E 104°02'.
Warning: this ship's position is 12 days out of date.

Length 260 m; draft 8.4 m.

Type: Cargo ship. MMSI: 477830800.

Date/timePositionNaut miles runAvg speedWind from/ knotsBaromVisibWave heightAir tempDewpointWater temp
2018-Jan-08 03:04N 01°15' E 104°02'115.3
2018-Jan-08 02:59N 01°15' E 104°01'714.3
2018-Jan-08 02:30N 01°13' E 103°55'5 9.8
2018-Jan-08 01:59N 01°12' E 103°50'4 8.1
2018-Jan-08 01:31N 01°15' E 103°47'1 1.7
2018-Jan-08 00:54N 01°16' E 103°47'0 0.0
2018-Jan-08 00:30N 01°16' E 103°47'0 0.0
2018-Jan-07 23:59N 01°16' E 103°47'0 0.0
2018-Jan-07 23:30N 01°16' E 103°47'0 0.0
2018-Jan-07 22:59N 01°16' E 103°47'0 0.0
2018-Jan-07 22:30N 01°16' E 103°47'0 0.0
2018-Jan-07 21:59N 01°16' E 103°47'0 0.0
2018-Jan-07 21:30N 01°16' E 103°47'0 0.0
2018-Jan-07 20:59N 01°16' E 103°47'0 0.0
2018-Jan-07 20:30N 01°16' E 103°47'0 0.0
2018-Jan-07 20:00N 01°16' E 103°47'0 0.0
2018-Jan-07 19:30N 01°16' E 103°47'0 0.0
2018-Jan-07 19:01N 01°16' E 103°47'0 0.0
2018-Jan-07 18:30N 01°16' E 103°47'0 0.0
2018-Jan-07 17:59N 01°16' E 103°47'0 0.0
2018-Jan-07 17:30N 01°16' E 103°47'0 0.0
2018-Jan-07 16:59N 01°16' E 103°47'0 0.0
2018-Jan-07 16:30N 01°16' E 103°47'0 0.0
2018-Jan-07 15:59N 01°16' E 103°47'0 0.0
2018-Jan-07 15:30N 01°16' E 103°47'0 0.0
2018-Jan-07 14:59N 01°16' E 103°47'0 0.0
2018-Jan-07 14:30N 01°16' E 103°47'0 0.0
2018-Jan-07 13:59N 01°16' E 103°47'0 0.0
2018-Jan-07 13:30N 01°16' E 103°47'0 0.0
2018-Jan-07 12:59N 01°16' E 103°47'0 0.0
2018-Jan-07 12:30N 01°16' E 103°47'0 0.0
2018-Jan-07 08:48N 01°16' E 103°47'0 0.0
2018-Jan-07 08:30N 01°16' E 103°47'0 0.0
2018-Jan-07 07:59N 01°16' E 103°47'0 0.0
2018-Jan-07 07:30N 01°16' E 103°47'0 0.0
2018-Jan-07 07:01N 01°16' E 103°47'0 0.0
2018-Jan-07 06:30N 01°16' E 103°47'0 0.0
2018-Jan-07 05:59N 01°16' E 103°47'0 0.0
2018-Jan-07 05:30N 01°16' E 103°47'0 0.0
2018-Jan-07 04:59N 01°16' E 103°47'0 0.0
2018-Jan-07 04:30N 01°16' E 103°47'0 0.0
2018-Jan-07 03:59N 01°16' E 103°47'0 0.0
2018-Jan-07 03:30N 01°16' E 103°47'0 0.0
2018-Jan-07 02:59N 01°16' E 103°47'0 0.0
2018-Jan-07 02:30N 01°16' E 103°47'0 0.0
2018-Jan-07 01:59N 01°16' E 103°47'0 0.0
2018-Jan-07 01:30N 01°16' E 103°47'0 0.0
2018-Jan-07 00:30N 01°16' E 103°47'0 0.0
2018-Jan-06 23:59N 01°16' E 103°47'0 0.2
2018-Jan-06 23:30N 01°16' E 103°48'2 3.3
2018-Jan-06 22:59N 01°15' E 103°46'612.3
2018-Jan-06 22:30N 01°13' E 103°40'5 9.2
2018-Jan-06 22:01N 01°12' E 103°36'3 5.4
2018-Jan-06 21:30N 01°10' E 103°34'4 8.0
2018-Jan-06 20:59N 01°10' E 103°30'510.3
2018-Jan-06 20:30N 01°11' E 103°25'611.1
2018-Jan-06 19:58N 01°15' E 103°21'911.2
2018-Jan-06 19:13N 01°21' E 103°14'312.3
2018-Jan-06 18:58N 01°23' E 103°12'  

Dump ship's entire track history